Time,TemperatureF,DewpointF,PressureIn,WindDirection,WindDirectionDegrees,WindSpeedMPH,WindSpeedGustMPH,Humidity,HourlyPrecipIn,Conditions,Clouds,dailyrainin,SolarRadiationWatts/m^2,SoftwareType,DateUTC
2013-09-04 00:02:00,63.0,54.0,-100.00,WSW,251,2.0,22.0,72,0.01,,,0.03,0.000000,,2013-09-04 06:02:00,
2013-09-04 00:22:00,62.0,55.0,-100.00,SW,224,6.0,10.0,77,0.00,,,0.03,0.000000,,2013-09-04 06:22:00,
2013-09-04 00:32:00,62.0,55.0,-100.00,SW,224,6.0,10.0,77,0.00,,,0.03,0.000000,,2013-09-04 06:32:00,
2013-09-04 00:42:00,62.0,55.0,-100.00,SW,224,6.0,10.0,77,0.00,,,0.03,0.000000,,2013-09-04 06:42:00,
2013-09-04 00:52:00,62.0,55.0,-100.00,SW,224,6.0,10.0,77,0.00,,,0.03,0.000000,,2013-09-04 06:52:00,
2013-09-04 01:02:00,62.0,55.0,-100.00,SW,224,6.0,10.0,77,0.00,,,0.03,0.000000,,2013-09-04 07:02:00,
2013-09-04 01:22:00,64.0,55.0,-100.00,SW,227,8.0,8.0,73,0.00,,,0.03,0.000000,,2013-09-04 07:22:00,
2013-09-04 01:32:00,64.0,55.0,-100.00,SW,227,8.0,8.0,73,0.00,,,0.03,0.000000,,2013-09-04 07:32:00,
2013-09-04 01:42:00,64.0,55.0,-100.00,SW,227,8.0,8.0,73,0.00,,,0.03,0.000000,,2013-09-04 07:42:00,
2013-09-04 01:52:00,64.0,55.0,-100.00,SW,227,8.0,8.0,73,0.00,,,0.03,0.000000,,2013-09-04 07:52:00,
2013-09-04 02:02:00,64.0,55.0,-100.00,SW,227,8.0,8.0,73,0.00,,,0.03,0.000000,,2013-09-04 08:02:00,
2013-09-04 02:22:00,65.0,54.0,-100.00,SW,226,8.0,15.0,68,0.00,,,0.03,0.000000,,2013-09-04 08:22:00,
2013-09-04 02:32:00,65.0,54.0,-100.00,SW,226,8.0,15.0,68,0.00,,,0.03,0.000000,,2013-09-04 08:32:00,
2013-09-04 02:43:00,65.0,54.0,-100.00,SW,226,8.0,15.0,68,0.00,,,0.03,0.000000,,2013-09-04 08:43:00,
2013-09-04 02:52:00,65.0,54.0,-100.00,SW,226,8.0,15.0,68,0.00,,,0.03,0.000000,,2013-09-04 08:52:00,
2013-09-04 03:01:00,65.0,54.0,-100.00,SW,226,8.0,15.0,68,0.00,,,0.03,0.000000,,2013-09-04 09:01:00,
2013-09-04 03:03:00,64.0,52.0,-100.00,SE,128,4.0,14.0,65,0.00,,,0.03,0.000000,,2013-09-04 09:03:00,
2013-09-04 03:22:00,64.0,52.0,-100.00,SE,128,4.0,14.0,65,0.00,,,0.03,0.000000,,2013-09-04 09:22:00,
2013-09-04 03:33:00,64.0,52.0,-100.00,SE,128,4.0,14.0,65,0.00,,,0.03,0.000000,,2013-09-04 09:33:00,
2013-09-04 03:43:00,64.0,52.0,-100.00,SE,128,4.0,14.0,65,0.00,,,0.03,0.000000,,2013-09-04 09:43:00,
2013-09-04 03:53:00,64.0,52.0,-100.00,SE,128,4.0,14.0,65,0.00,,,0.03,0.000000,,2013-09-04 09:53:00,
2013-09-04 04:23:00,63.0,53.0,-100.00,SSW,202,0.0,8.0,70,0.00,,,0.03,0.000000,,2013-09-04 10:23:00,
2013-09-04 04:33:00,63.0,53.0,-100.00,SSW,202,0.0,8.0,70,0.00,,,0.03,0.000000,,2013-09-04 10:33:00,
2013-09-04 04:42:00,63.0,53.0,-100.00,SSW,202,0.0,8.0,70,0.00,,,0.03,0.000000,,2013-09-04 10:42:00,
2013-09-04 04:52:00,63.0,53.0,-100.00,SSW,202,0.0,8.0,70,0.00,,,0.03,0.000000,,2013-09-04 10:52:00,
2013-09-04 05:02:00,63.0,53.0,-100.00,SSW,202,0.0,8.0,70,0.00,,,0.03,0.000000,,2013-09-04 11:02:00,
2013-09-04 05:22:00,62.0,55.0,-100.00,East,85,0.0,8.0,78,0.00,,,0.03,0.000000,,2013-09-04 11:22:00,
2013-09-04 05:33:00,62.0,55.0,-100.00,East,85,0.0,8.0,78,0.00,,,0.03,0.000000,,2013-09-04 11:33:00,
2013-09-04 05:42:00,62.0,55.0,-100.00,East,85,0.0,8.0,78,0.00,,,0.03,0.000000,,2013-09-04 11:42:00,
2013-09-04 05:52:00,62.0,55.0,-100.00,East,85,0.0,8.0,78,0.00,,,0.03,0.000000,,2013-09-04 11:52:00,
2013-09-04 06:01:00,62.0,55.0,-100.00,East,85,0.0,8.0,78,0.00,,,0.03,0.000000,,2013-09-04 12:01:00,
2013-09-04 06:21:00,60.0,53.0,-100.00,SSE,165,0.0,4.0,79,0.00,,,0.03,0.000000,,2013-09-04 12:21:00,
2013-09-04 06:32:00,60.0,53.0,-100.00,SSE,165,0.0,4.0,79,0.00,,,0.03,0.000000,,2013-09-04 12:32:00,
2013-09-04 06:42:00,60.0,53.0,-100.00,SSE,165,0.0,4.0,79,0.00,,,0.03,0.000000,,2013-09-04 12:42:00,
2013-09-04 06:52:00,60.0,53.0,-100.00,SSE,165,0.0,4.0,79,0.00,,,0.03,0.000000,,2013-09-04 12:52:00,
2013-09-04 07:01:00,60.0,53.0,-100.00,SSE,165,0.0,4.0,79,0.00,,,0.03,0.000000,,2013-09-04 13:01:00,
2013-09-04 07:42:00,62.0,54.0,-100.00,South,184,4.0,4.0,76,0.00,,,0.03,1.000000,,2013-09-04 13:42:00,
2013-09-04 07:52:00,62.0,54.0,-100.00,South,184,4.0,4.0,76,0.00,,,0.03,1.000000,,2013-09-04 13:52:00,
2013-09-04 08:01:00,62.0,54.0,-100.00,South,184,4.0,4.0,76,0.00,,,0.03,1.000000,,2013-09-04 14:01:00,
2013-09-04 08:21:00,63.0,53.0,-100.00,WNW,283,0.0,7.0,69,0.00,,,0.03,74.000000,,2013-09-04 14:21:00,
2013-09-04 08:32:00,63.0,53.0,-100.00,WNW,283,0.0,7.0,69,0.00,,,0.03,74.000000,,2013-09-04 14:32:00,
2013-09-04 08:42:00,63.0,53.0,-100.00,WNW,283,0.0,7.0,69,0.00,,,0.03,74.000000,,2013-09-04 14:42:00,
2013-09-04 08:52:00,63.0,53.0,-100.00,WNW,283,0.0,7.0,69,0.00,,,0.03,74.000000,,2013-09-04 14:52:00,
2013-09-04 09:01:00,63.0,53.0,-100.00,WNW,283,0.0,7.0,69,0.00,,,0.03,74.000000,,2013-09-04 15:01:00,
2013-09-04 09:03:00,71.0,59.0,-100.00,ESE,107,2.0,4.0,65,0.00,,,-99.99,264.000000,,2013-09-04 15:03:00,
2013-09-04 09:53:00,71.0,59.0,-100.00,ESE,107,2.0,4.0,65,0.00,,,-99.99,264.000000,,2013-09-04 15:53:00,
2013-09-04 10:03:00,71.0,54.0,-100.00,SW,216,9.0,11.0,55,0.00,,,0.03,421.000000,,2013-09-04 16:03:00,
2013-09-04 10:43:00,71.0,54.0,-100.00,SW,216,9.0,11.0,55,0.00,,,0.03,421.000000,,2013-09-04 16:43:00,
2013-09-04 10:53:00,71.0,54.0,-100.00,SW,216,9.0,11.0,55,0.00,,,0.03,421.000000,,2013-09-04 16:53:00,
2013-09-04 11:42:00,75.0,56.0,-100.00,SSE,168,10.0,14.0,52,0.00,,,0.03,581.000000,,2013-09-04 17:42:00,
2013-09-04 11:52:00,75.0,56.0,-100.00,SSE,168,10.0,14.0,52,0.00,,,0.03,581.000000,,2013-09-04 17:52:00,
2013-09-04 12:02:00,75.0,56.0,-100.00,SSE,168,10.0,14.0,52,0.00,,,0.03,581.000000,,2013-09-04 18:02:00,
2013-09-04 12:42:00,81.0,56.0,-100.00,South,169,12.0,18.0,42,0.00,,,0.03,751.000000,,2013-09-04 18:42:00,
2013-09-04 12:52:00,81.0,56.0,-100.00,South,169,12.0,18.0,42,0.00,,,0.03,751.000000,,2013-09-04 18:52:00,
2013-09-04 13:02:00,81.0,56.0,-100.00,South,169,12.0,18.0,42,0.00,,,0.03,751.000000,,2013-09-04 19:02:00,
2013-09-04 13:22:00,80.0,53.0,-100.00,SW,215,12.0,23.0,40,0.00,,,0.03,900.000000,,2013-09-04 19:22:00,
2013-09-04 13:32:00,80.0,53.0,-100.00,SW,215,12.0,23.0,40,0.00,,,0.03,900.000000,,2013-09-04 19:32:00,
2013-09-04 13:42:00,80.0,53.0,-100.00,SW,215,12.0,23.0,40,0.00,,,0.03,900.000000,,2013-09-04 19:42:00,
2013-09-04 13:52:00,80.0,53.0,-100.00,SW,215,12.0,23.0,40,0.00,,,0.03,900.000000,,2013-09-04 19:52:00,
2013-09-04 14:02:00,80.0,53.0,-100.00,SW,215,12.0,23.0,40,0.00,,,0.03,900.000000,,2013-09-04 20:02:00,
2013-09-04 14:43:00,85.0,55.0,-100.00,South,173,11.0,23.0,36,0.00,,,0.03,930.000000,,2013-09-04 20:43:00,
2013-09-04 14:53:00,85.0,55.0,-100.00,South,173,11.0,23.0,36,0.00,,,0.03,930.000000,,2013-09-04 20:53:00,
2013-09-04 15:01:00,85.0,55.0,-100.00,South,173,11.0,23.0,36,0.00,,,0.03,930.000000,,2013-09-04 21:01:00,
2013-09-04 15:03:00,87.0,53.0,-100.00,SSE,164,10.0,20.0,31,0.00,,,0.03,891.000000,,2013-09-04 21:03:00,
2013-09-04 15:44:00,87.0,53.0,-100.00,SSE,164,10.0,20.0,31,0.00,,,0.03,891.000000,,2013-09-04 21:44:00,
2013-09-04 15:54:00,87.0,53.0,-100.00,SSE,164,10.0,20.0,31,0.00,,,0.03,891.000000,,2013-09-04 21:54:00,
2013-09-04 16:03:00,88.0,50.0,-100.00,SE,139,8.0,22.0,27,0.00,,,0.03,877.000000,,2013-09-04 22:03:00,
2013-09-04 16:23:00,88.0,50.0,-100.00,SE,139,8.0,22.0,27,0.00,,,0.03,877.000000,,2013-09-04 22:23:00,
2013-09-04 16:33:00,88.0,50.0,-100.00,SE,139,8.0,22.0,27,0.00,,,0.03,877.000000,,2013-09-04 22:33:00,
2013-09-04 16:43:00,88.0,50.0,-100.00,SE,139,8.0,22.0,27,0.00,,,0.03,877.000000,,2013-09-04 22:43:00,
2013-09-04 16:54:00,88.0,50.0,-100.00,SE,139,8.0,22.0,27,0.00,,,0.03,877.000000,,2013-09-04 22:54:00,
2013-09-04 17:22:00,88.0,50.0,-100.00,SE,146,9.0,21.0,27,0.00,,,0.03,707.000000,,2013-09-04 23:22:00,
2013-09-04 17:34:00,88.0,50.0,-100.00,SE,146,9.0,21.0,27,0.00,,,0.03,707.000000,,2013-09-04 23:34:00,
2013-09-04 17:42:00,88.0,50.0,-100.00,SE,146,9.0,21.0,27,0.00,,,0.03,707.000000,,2013-09-04 23:42:00,
2013-09-04 17:52:00,88.0,50.0,-100.00,SE,146,9.0,21.0,27,0.00,,,0.03,707.000000,,2013-09-04 23:52:00,
2013-09-04 18:01:00,88.0,50.0,-100.00,SE,146,9.0,21.0,27,0.00,,,0.03,707.000000,,2013-09-05 00:01:00,
2013-09-04 18:22:00,85.0,49.0,-100.00,NNE,23,9.0,19.0,29,0.00,,,0.03,387.000000,,2013-09-05 00:22:00,
2013-09-04 18:32:00,85.0,49.0,-100.00,NNE,23,9.0,19.0,29,0.00,,,0.03,387.000000,,2013-09-05 00:32:00,
2013-09-04 18:43:00,85.0,49.0,-100.00,NNE,23,9.0,19.0,29,0.00,,,0.03,387.000000,,2013-09-05 00:43:00,
2013-09-04 18:52:00,85.0,49.0,-100.00,NNE,23,9.0,19.0,29,0.00,,,0.03,387.000000,,2013-09-05 00:52:00,
2013-09-04 19:01:00,85.0,49.0,-100.00,NNE,23,9.0,19.0,29,0.00,,,0.03,387.000000,,2013-09-05 01:01:00,
2013-09-04 19:42:00,85.0,50.0,-100.00,NNE,27,6.0,19.0,30,0.00,,,0.03,113.000000,,2013-09-05 01:42:00,
2013-09-04 19:52:00,85.0,50.0,-100.00,NNE,27,6.0,19.0,30,0.00,,,0.03,113.000000,,2013-09-05 01:52:00,
2013-09-04 20:02:00,85.0,50.0,-100.00,NNE,27,6.0,19.0,30,0.00,,,0.03,113.000000,,2013-09-05 02:02:00,
2013-09-04 20:22:00,78.0,53.0,-100.00,NNE,13,0.0,12.0,42,0.00,,,0.03,40.000000,,2013-09-05 02:22:00,
2013-09-04 20:32:00,78.0,53.0,-100.00,NNE,13,0.0,12.0,42,0.00,,,0.03,40.000000,,2013-09-05 02:32:00,
2013-09-04 20:42:00,78.0,53.0,-100.00,NNE,13,0.0,12.0,42,0.00,,,0.03,40.000000,,2013-09-05 02:42:00,
2013-09-04 20:52:00,78.0,53.0,-100.00,NNE,13,0.0,12.0,42,0.00,,,0.03,40.000000,,2013-09-05 02:52:00,
2013-09-04 21:02:00,78.0,53.0,-100.00,NNE,13,0.0,12.0,42,0.00,,,0.03,40.000000,,2013-09-05 03:02:00,
2013-09-04 21:03:00,72.0,50.0,-100.00,WSW,242,5.0,8.0,46,0.00,,,0.03,0.000000,,2013-09-05 03:03:00,
2013-09-04 21:22:00,72.0,50.0,-100.00,WSW,242,5.0,8.0,46,0.00,,,0.03,0.000000,,2013-09-05 03:22:00,
2013-09-04 21:34:00,72.0,50.0,-100.00,WSW,242,5.0,8.0,46,0.00,,,0.03,0.000000,,2013-09-05 03:34:00,
2013-09-04 21:45:00,72.0,50.0,-100.00,WSW,242,5.0,8.0,46,0.00,,,0.03,0.000000,,2013-09-05 03:45:00,
2013-09-04 21:54:00,72.0,50.0,-100.00,WSW,242,5.0,8.0,46,0.00,,,0.03,0.000000,,2013-09-05 03:54:00,
2013-09-04 22:03:00,69.0,48.0,-100.00,WSW,256,5.0,10.0,47,0.00,,,0.01,0.000000,,2013-09-05 04:03:00,
2013-09-04 22:44:00,69.0,48.0,-100.00,WSW,256,5.0,10.0,47,0.00,,,0.01,0.000000,,2013-09-05 04:44:00,
2013-09-04 22:53:00,69.0,48.0,-100.00,WSW,256,5.0,10.0,47,0.00,,,0.01,0.000000,,2013-09-05 04:53:00,
2013-09-04 23:23:00,70.0,49.0,-100.00,WSW,257,3.0,11.0,47,0.00,,,0.00,0.000000,,2013-09-05 05:23:00,
2013-09-04 23:34:00,70.0,49.0,-100.00,WSW,257,3.0,11.0,47,0.00,,,0.00,0.000000,,2013-09-05 05:34:00,
2013-09-04 23:43:00,70.0,49.0,-100.00,WSW,257,3.0,11.0,47,0.00,,,0.00,0.000000,,2013-09-05 05:43:00,